地図

経路データ

SID SEASON NUMBER BASIN SUBBASIN NAME ISO_TIME NATURE LAT LON WMO_WIND WMO_PRES WMO_AGENCY TRACK_TYPE DIST2LAND LANDFALL IFLAG USA_AGENCY USA_ATCF_ID USA_LAT USA_LON USA_RECORD USA_STATUS USA_WIND USA_PRES USA_SSHS USA_R34_NE USA_R34_SE USA_R34_SW USA_R34_NW USA_R50_NE USA_R50_SE USA_R50_SW USA_R50_NW USA_R64_NE USA_R64_SE USA_R64_SW USA_R64_NW USA_POCI USA_ROCI USA_RMW USA_EYE TOKYO_LAT TOKYO_LON TOKYO_GRADE TOKYO_WIND TOKYO_PRES TOKYO_R50_DIR TOKYO_R50_LONG TOKYO_R50_SHORT TOKYO_R30_DIR TOKYO_R30_LONG TOKYO_R30_SHORT TOKYO_LAND CMA_LAT CMA_LON CMA_CAT CMA_WIND CMA_PRES HKO_LAT HKO_LON HKO_CAT HKO_WIND HKO_PRES NEWDELHI_LAT NEWDELHI_LON NEWDELHI_GRADE NEWDELHI_WIND NEWDELHI_PRES NEWDELHI_CI NEWDELHI_DP NEWDELHI_POCI REUNION_LAT REUNION_LON REUNION_TYPE REUNION_WIND REUNION_PRES REUNION_TNUM REUNION_CI REUNION_RMW REUNION_R34_NE REUNION_R34_SE REUNION_R34_SW REUNION_R34_NW REUNION_R50_NE REUNION_R50_SE REUNION_R50_SW REUNION_R50_NW REUNION_R64_NE REUNION_R64_SE REUNION_R64_SW REUNION_R64_NW BOM_LAT BOM_LON BOM_TYPE BOM_WIND BOM_PRES BOM_TNUM BOM_CI BOM_RMW BOM_R34_NE BOM_R34_SE BOM_R34_SW BOM_R34_NW BOM_R50_NE BOM_R50_SE BOM_R50_SW BOM_R50_NW BOM_R64_NE BOM_R64_SE BOM_R64_SW BOM_R64_NW BOM_ROCI BOM_POCI BOM_EYE BOM_POS_METHOD BOM_PRES_METHOD NADI_LAT NADI_LON NADI_CAT NADI_WIND NADI_PRES WELLINGTON_LAT WELLINGTON_LON WELLINGTON_WIND WELLINGTON_PRES DS824_LAT DS824_LON DS824_STAGE DS824_WIND DS824_PRES TD9636_LAT TD9636_LON TD9636_STAGE TD9636_WIND TD9636_PRES TD9635_LAT TD9635_LON TD9635_WIND TD9635_PRES TD9635_ROCI NEUMANN_LAT NEUMANN_LON NEUMANN_CLASS NEUMANN_WIND NEUMANN_PRES MLC_LAT MLC_LON MLC_CLASS MLC_WIND MLC_PRES USA_GUST BOM_GUST BOM_GUST_PER REUNION_GUST REUNION_GUST_PER USA_SEAHGT USA_SEARAD_NE USA_SEARAD_SE USA_SEARAD_SW USA_SEARAD_NW STORM_SPEED STORM_DIR
1911212N19146 1911 46 WP MM NOT_NAMED 1911-07-31 09:00:00 NR 18.8000 146.000 main 1895 1785 __________O___ -1 18.8000 146.000 7 28 300
1911212N19146 1911 46 WP MM NOT_NAMED 1911-07-31 12:00:00 NR 19.5083 144.706 main 1783 1668 __________P___ -1 19.5083 144.706 7 28 300
1911212N19146 1911 46 WP MM NOT_NAMED 1911-07-31 15:00:00 NR 20.1792 143.464 main 1658 1550 __________P___ -1 20.1792 143.464 7 26 300
1911212N19146 1911 46 WP MM NOT_NAMED 1911-07-31 18:00:00 NR 20.7850 142.339 main 1545 1459 __________P___ -1 20.7850 142.339 7 22 300
1911212N19146 1911 46 WP MM NOT_NAMED 1911-07-31 21:00:00 NR 21.3000 141.400 main 1459 1392 __________O___ -1 21.3000 141.400 7 18 301
1911212N19146 1911 46 WP MM NOT_NAMED 1911-08-01 00:00:00 NR 21.7116 140.688 main 1392 1344 __________P___ -1 21.7116 140.688 7 14 303
1911212N19146 1911 46 WP MM NOT_NAMED 1911-08-01 03:00:00 NR 22.0534 140.143 main 1330 1286 __________P___ -1 22.0534 140.143 7 11 305
1911212N19146 1911 46 WP MM NOT_NAMED 1911-08-01 06:00:00 NR 22.3689 139.677 main 1286 1239 __________P___ -1 22.3689 139.677 7 11 307
1911212N19146 1911 46 WP MM NOT_NAMED 1911-08-01 09:00:00 NR 22.7000 139.200 main 1239 1167 __________O___ -1 22.7000 139.200 7 13 305
1911212N19146 1911 46 WP MM NOT_NAMED 1911-08-01 12:00:00 NR 23.1085 138.531 main 1161 1089 __________P___ -1 23.1085 138.531 7 15 304
1911212N19146 1911 46 WP MM NOT_NAMED 1911-08-01 15:00:00 NR 23.5365 137.842 main 1083 1012 __________P___ -1 23.5365 137.842 7 15 305
1911212N19146 1911 46 WP MM NOT_NAMED 1911-08-01 18:00:00 NR 23.9711 137.181 main 1003 933 __________P___ -1 23.9711 137.181 7 14 307
1911212N19146 1911 46 WP MM NOT_NAMED 1911-08-01 21:00:00 NR 24.4000 136.600 main 933 868 __________O___ -1 24.4000 136.600 7 13 310
1911212N19146 1911 46 WP MM NOT_NAMED 1911-08-02 00:00:00 NR 24.7736 136.118 main 868 819 __________P___ -1 24.7736 136.118 7 11 313
1911212N19146 1911 46 WP MM NOT_NAMED 1911-08-02 03:00:00 NR 25.1463 135.726 main 819 765 __________P___ -1 25.1463 135.726 7 10 321
1911212N19146 1911 46 WP MM NOT_NAMED 1911-08-02 06:00:00 NR 25.5459 135.421 main 765 707 __________P___ -1 25.5459 135.421 7 10 331
1911212N19146 1911 46 WP MM NOT_NAMED 1911-08-02 09:00:00 NR 26.0000 135.200 main 707 649 __________O___ -1 26.0000 135.200 7 11 340
1911212N19146 1911 46 WP MM NOT_NAMED 1911-08-02 12:00:00 NR 26.5501 135.021 main 639 587 __________P___ -1 26.5501 135.021 7 12 348
1911212N19146 1911 46 WP MM NOT_NAMED 1911-08-02 15:00:00 NR 27.1544 134.922 main 578 533 __________P___ -1 27.1544 134.922 7 12 354
1911212N19146 1911 46 WP MM NOT_NAMED 1911-08-02 18:00:00 NR 27.7816 134.887 main 524 474 __________P___ -1 27.7816 134.887 7 13 0
1911212N19146 1911 46 WP MM NOT_NAMED 1911-08-02 21:00:00 NR 28.4000 134.900 main 474 429 __________O___ -1 28.4000 134.900 7 12 1
1911212N19146 1911 46 WP MM NOT_NAMED 1911-08-03 00:00:00 NR 28.9885 134.907 main 429 396 __________P___ -1 28.9885 134.907 7 12 3
1911212N19146 1911 46 WP MM NOT_NAMED 1911-08-03 03:00:00 NR 29.5597 134.960 main 394 351 __________P___ -1 29.5597 134.960 7 11 7
1911212N19146 1911 46 WP MM NOT_NAMED 1911-08-03 06:00:00 NR 30.1010 135.058 main 351 304 __________P___ -1 30.1010 135.058 7 11 11
1911212N19146 1911 46 WP MM NOT_NAMED 1911-08-03 09:00:00 NR 30.6000 135.200 main 304 266 __________O___ -1 30.6000 135.200 7 10 16
1911212N19146 1911 46 WP MM NOT_NAMED 1911-08-03 12:00:00 NR 31.0473 135.382 main 270 223 __________P___ -1 31.0473 135.382 7 9 22
1911212N19146 1911 46 WP MM NOT_NAMED 1911-08-03 15:00:00 NR 31.4526 135.605 main 212 178 __________P___ -1 31.4526 135.605 7 9 27
1911212N19146 1911 46 WP MM NOT_NAMED 1911-08-03 18:00:00 NR 31.8316 135.851 main 178 136 __________P___ -1 31.8316 135.851 7 9 29
1911212N19146 1911 46 WP MM NOT_NAMED 1911-08-03 21:00:00 NR 32.2000 136.100 main 136 110 __________O___ -1 32.2000 136.100 7 7 30
1911212N19146 1911 46 WP MM NOT_NAMED 1911-08-04 00:00:00 NR 32.4679 136.290 main 110 95 __________P___ -1 32.4679 136.290 7 6 31
1911212N19146 1911 46 WP MM NOT_NAMED 1911-08-04 03:00:00 NR 32.7467 136.484 main 101 85 __________P___ -1 32.7467 136.484 7 8 28
1911212N19146 1911 46 WP MM NOT_NAMED 1911-08-04 06:00:00 NR 33.1271 136.711 main 85 67 __________P___ -1 33.1271 136.711 7 10 24
1911212N19146 1911 46 WP MM NOT_NAMED 1911-08-04 09:00:00 NR 33.7000 137.000 main 67 22 __________O___ -1 33.7000 137.000 7 15 22
1911212N19146 1911 46 WP MM NOT_NAMED 1911-08-04 12:00:00 NR 34.5467 137.405 main 22 0 __________P___ -1 34.5467 137.405 7 20 21
1911212N19146 1911 46 WP MM NOT_NAMED 1911-08-04 15:00:00 NR 35.5897 137.879 main 0 0 __________P___ -1 35.5897 137.879 7 24 20
1911212N19146 1911 46 WP MM NOT_NAMED 1911-08-04 18:00:00 NR 36.7626 138.390 main 0 0 __________P___ -1 36.7626 138.390 7 26 19
1911212N19146 1911 46 WP MM NOT_NAMED 1911-08-04 21:00:00 NR 38.0000 138.900 main 14 14 __________O___ -1 38.0000 138.900 7 24 17
1911212N19146 1911 46 WP MM NOT_NAMED 1911-08-05 00:00:00 NR 39.0669 139.260 main 48 14 __________P___ -1 39.0669 139.260 7 23 14
1911212N19146 1911 46 WP MM NOT_NAMED 1911-08-05 03:00:00 NR 40.2025 139.622 main 33 0 __________P___ -1 40.2025 139.622 7 25 14
1911212N19146 1911 46 WP MM NOT_NAMED 1911-08-05 06:00:00 NR 41.4868 140.070 main 0 0 __________P___ -1 41.4868 140.070 7 29 16
1911212N19146 1911 46 WP MM NOT_NAMED 1911-08-05 09:00:00 NR 43.0000 140.700 main 0 0 __________O___ -1 43.0000 140.700 7 35 19
1911212N19146 1911 46 WP MM NOT_NAMED 1911-08-05 12:00:00 NR 44.7954 141.600 main 15 0 __________P___ -1 44.7954 141.600 7 41 21
1911212N19146 1911 46 WP MM NOT_NAMED 1911-08-05 15:00:00 NR 46.8184 142.769 main 0 0 __________P___ -1 46.8184 142.769 7 45 23
1911212N19146 1911 46 WP MM NOT_NAMED 1911-08-05 18:00:00 NR 48.9830 144.181 main 13 0 __________P___ -1 48.9830 144.181 7 48 24
1911212N19146 1911 46 WP MM NOT_NAMED 1911-08-05 21:00:00 NR 51.2000 145.800 main 156 __________O___ -1 51.2000 145.800 7 49 25

デジタル台風データ・検索

IBTrACS Databaseについて

本データベースは、米国NOAAが公開する1842年以降の世界の熱帯低気圧のベストトラックデータアーカイブInternational Best Track Archive for Climate Stewardship (IBTrACS)を、ウェブで閲覧しやすい形式に変換したものです。

最終更新日:2021-12-03